sensor_id;sensor_type;location;lat;lon;timestamp;P1;durP1;ratioP1;P2;durP2;ratioP2
56712;SDS011;42589;45.536;9.032;2023-12-29T00:00:43;25.67;;;21.23;;
56712;SDS011;42589;45.536;9.032;2023-12-29T00:03:46;28.33;;;20.98;;
56712;SDS011;42589;45.536;9.032;2023-12-29T00:06:46;28.83;;;21.55;;
56712;SDS011;42589;45.536;9.032;2023-12-29T00:09:48;29.67;;;21.02;;
56712;SDS011;42589;45.536;9.032;2023-12-29T00:12:49;27.30;;;20.70;;
56712;SDS011;42589;45.536;9.032;2023-12-29T00:15:53;26.30;;;20.20;;
56712;SDS011;42589;45.536;9.032;2023-12-29T00:18:53;25.67;;;19.85;;
56712;SDS011;42589;45.536;9.032;2023-12-29T00:21:54;26.60;;;20.88;;
56712;SDS011;42589;45.536;9.032;2023-12-29T00:24:56;25.10;;;21.05;;
56712;SDS011;42589;45.536;9.032;2023-12-29T00:27:57;27.35;;;20.92;;
56712;SDS011;42589;45.536;9.032;2023-12-29T00:30:57;26.15;;;19.67;;
56712;SDS011;42589;45.536;9.032;2023-12-29T00:33:57;27.33;;;21.10;;
56712;SDS011;42589;45.536;9.032;2023-12-29T00:36:58;24.35;;;20.38;;
56712;SDS011;42589;45.536;9.032;2023-12-29T00:39:58;28.00;;;20.52;;
56712;SDS011;42589;45.536;9.032;2023-12-29T00:43:00;26.80;;;20.60;;
56712;SDS011;42589;45.536;9.032;2023-12-29T00:46:01;24.75;;;19.67;;
56712;SDS011;42589;45.536;9.032;2023-12-29T00:49:02;25.30;;;20.02;;
56712;SDS011;42589;45.536;9.032;2023-12-29T00:52:02;28.08;;;20.63;;
56712;SDS011;42589;45.536;9.032;2023-12-29T00:55:03;24.08;;;20.27;;
56712;SDS011;42589;45.536;9.032;2023-12-29T00:58:03;26.90;;;19.38;;
56712;SDS011;42589;45.536;9.032;2023-12-29T01:01:07;25.33;;;19.58;;
56712;SDS011;42589;45.536;9.032;2023-12-29T01:04:08;25.67;;;20.83;;
56712;SDS011;42589;45.536;9.032;2023-12-29T01:07:09;24.05;;;19.60;;
56712;SDS011;42589;45.536;9.032;2023-12-29T01:10:10;25.25;;;19.42;;
56712;SDS011;42589;45.536;9.032;2023-12-29T01:13:11;25.52;;;20.17;;
56712;SDS011;42589;45.536;9.032;2023-12-29T01:16:11;26.92;;;19.38;;
56712;SDS011;42589;45.536;9.032;2023-12-29T01:19:12;28.25;;;19.95;;
56712;SDS011;42589;45.536;9.032;2023-12-29T01:22:13;28.77;;;21.08;;
56712;SDS011;42589;45.536;9.032;2023-12-29T01:25:14;28.98;;;20.88;;
56712;SDS011;42589;45.536;9.032;2023-12-29T01:28:15;27.58;;;20.83;;
56712;SDS011;42589;45.536;9.032;2023-12-29T01:31:15;24.60;;;20.02;;
56712;SDS011;42589;45.536;9.032;2023-12-29T01:34:16;24.92;;;20.27;;
56712;SDS011;42589;45.536;9.032;2023-12-29T01:37:17;24.73;;;19.80;;
56712;SDS011;42589;45.536;9.032;2023-12-29T01:40:18;28.15;;;20.35;;
56712;SDS011;42589;45.536;9.032;2023-12-29T01:43:19;24.42;;;19.85;;
56712;SDS011;42589;45.536;9.032;2023-12-29T01:46:19;24.58;;;20.00;;
56712;SDS011;42589;45.536;9.032;2023-12-29T01:49:20;26.17;;;19.90;;
56712;SDS011;42589;45.536;9.032;2023-12-29T01:52:21;27.65;;;20.83;;
56712;SDS011;42589;45.536;9.032;2023-12-29T01:55:22;25.42;;;20.67;;
56712;SDS011;42589;45.536;9.032;2023-12-29T01:58:25;31.75;;;21.35;;
56712;SDS011;42589;45.536;9.032;2023-12-29T02:01:26;26.98;;;21.33;;
56712;SDS011;42589;45.536;9.032;2023-12-29T02:04:30;27.67;;;20.80;;
56712;SDS011;42589;45.536;9.032;2023-12-29T02:07:31;28.63;;;21.85;;
56712;SDS011;42589;45.536;9.032;2023-12-29T02:10:32;28.95;;;21.48;;
56712;SDS011;42589;45.536;9.032;2023-12-29T02:13:32;26.08;;;20.67;;
56712;SDS011;42589;45.536;9.032;2023-12-29T02:16:40;27.23;;;20.42;;
56712;SDS011;42589;45.536;9.032;2023-12-29T02:19:46;27.85;;;21.25;;
56712;SDS011;42589;45.536;9.032;2023-12-29T02:22:47;26.95;;;21.27;;
56712;SDS011;42589;45.536;9.032;2023-12-29T02:25:47;24.02;;;20.73;;
56712;SDS011;42589;45.536;9.032;2023-12-29T02:28:51;27.55;;;20.95;;
56712;SDS011;42589;45.536;9.032;2023-12-29T02:34:53;29.25;;;20.95;;
56712;SDS011;42589;45.536;9.032;2023-12-29T02:37:55;27.35;;;21.67;;
56712;SDS011;42589;45.536;9.032;2023-12-29T02:40:56;26.65;;;20.73;;
56712;SDS011;42589;45.536;9.032;2023-12-29T02:43:57;29.20;;;21.75;;
56712;SDS011;42589;45.536;9.032;2023-12-29T02:46:59;30.15;;;23.13;;
56712;SDS011;42589;45.536;9.032;2023-12-29T02:49:59;27.73;;;23.02;;
56712;SDS011;42589;45.536;9.032;2023-12-29T02:53:00;27.98;;;22.48;;
56712;SDS011;42589;45.536;9.032;2023-12-29T02:56:07;30.42;;;22.55;;
56712;SDS011;42589;45.536;9.032;2023-12-29T02:59:08;26.98;;;21.42;;
56712;SDS011;42589;45.536;9.032;2023-12-29T03:02:09;27.42;;;21.85;;
56712;SDS011;42589;45.536;9.032;2023-12-29T03:05:10;28.40;;;21.92;;
56712;SDS011;42589;45.536;9.032;2023-12-29T03:08:10;27.95;;;21.70;;
56712;SDS011;42589;45.536;9.032;2023-12-29T03:11:11;25.60;;;21.00;;
56712;SDS011;42589;45.536;9.032;2023-12-29T03:14:14;24.95;;;21.33;;
56712;SDS011;42589;45.536;9.032;2023-12-29T03:17:15;27.02;;;21.90;;
56712;SDS011;42589;45.536;9.032;2023-12-29T03:20:16;27.30;;;21.73;;
56712;SDS011;42589;45.536;9.032;2023-12-29T03:23:16;26.08;;;21.40;;
56712;SDS011;42589;45.536;9.032;2023-12-29T03:26:17;26.83;;;21.08;;
56712;SDS011;42589;45.536;9.032;2023-12-29T03:29:18;29.40;;;23.10;;
56712;SDS011;42589;45.536;9.032;2023-12-29T03:32:19;28.40;;;22.30;;
56712;SDS011;42589;45.536;9.032;2023-12-29T03:35:19;27.13;;;21.42;;
56712;SDS011;42589;45.536;9.032;2023-12-29T03:38:20;27.80;;;21.55;;
56712;SDS011;42589;45.536;9.032;2023-12-29T03:41:21;27.60;;;21.30;;
56712;SDS011;42589;45.536;9.032;2023-12-29T03:44:21;28.20;;;20.98;;
56712;SDS011;42589;45.536;9.032;2023-12-29T03:47:22;24.70;;;21.27;;
56712;SDS011;42589;45.536;9.032;2023-12-29T03:50:22;31.70;;;22.05;;
56712;SDS011;42589;45.536;9.032;2023-12-29T03:53:23;26.73;;;20.67;;
56712;SDS011;42589;45.536;9.032;2023-12-29T03:56:23;26.17;;;21.80;;
56712;SDS011;42589;45.536;9.032;2023-12-29T03:59:24;30.00;;;21.80;;
56712;SDS011;42589;45.536;9.032;2023-12-29T04:02:25;27.00;;;20.95;;
56712;SDS011;42589;45.536;9.032;2023-12-29T04:05:26;31.52;;;22.95;;
56712;SDS011;42589;45.536;9.032;2023-12-29T04:08:27;28.55;;;22.20;;
56712;SDS011;42589;45.536;9.032;2023-12-29T04:11:27;27.88;;;22.30;;
56712;SDS011;42589;45.536;9.032;2023-12-29T04:14:28;30.48;;;23.02;;
56712;SDS011;42589;45.536;9.032;2023-12-29T04:17:28;29.00;;;23.00;;
56712;SDS011;42589;45.536;9.032;2023-12-29T04:20:29;32.83;;;22.70;;
56712;SDS011;42589;45.536;9.032;2023-12-29T04:23:30;29.65;;;22.63;;
56712;SDS011;42589;45.536;9.032;2023-12-29T04:26:39;31.23;;;22.58;;
56712;SDS011;42589;45.536;9.032;2023-12-29T04:29:40;29.27;;;22.80;;
56712;SDS011;42589;45.536;9.032;2023-12-29T04:32:40;29.05;;;22.52;;
56712;SDS011;42589;45.536;9.032;2023-12-29T04:35:41;28.58;;;22.30;;
56712;SDS011;42589;45.536;9.032;2023-12-29T04:38:41;28.98;;;23.83;;
56712;SDS011;42589;45.536;9.032;2023-12-29T04:41:42;27.38;;;21.75;;
56712;SDS011;42589;45.536;9.032;2023-12-29T04:44:44;27.23;;;21.90;;
56712;SDS011;42589;45.536;9.032;2023-12-29T04:47:44;25.98;;;21.77;;
56712;SDS011;42589;45.536;9.032;2023-12-29T04:50:45;30.10;;;23.20;;
56712;SDS011;42589;45.536;9.032;2023-12-29T04:53:46;28.00;;;22.33;;
56712;SDS011;42589;45.536;9.032;2023-12-29T04:56:46;29.48;;;22.73;;
56712;SDS011;42589;45.536;9.032;2023-12-29T04:59:47;30.58;;;23.33;;
56712;SDS011;42589;45.536;9.032;2023-12-29T05:02:48;28.90;;;23.08;;
56712;SDS011;42589;45.536;9.032;2023-12-29T05:05:49;29.50;;;22.77;;
56712;SDS011;42589;45.536;9.032;2023-12-29T05:08:49;30.15;;;23.35;;
56712;SDS011;42589;45.536;9.032;2023-12-29T05:11:50;27.95;;;21.98;;
56712;SDS011;42589;45.536;9.032;2023-12-29T05:14:51;29.15;;;23.88;;
56712;SDS011;42589;45.536;9.032;2023-12-29T05:17:52;30.80;;;23.05;;
56712;SDS011;42589;45.536;9.032;2023-12-29T05:20:53;27.45;;;21.30;;
56712;SDS011;42589;45.536;9.032;2023-12-29T05:23:53;28.40;;;23.55;;
56712;SDS011;42589;45.536;9.032;2023-12-29T05:26:54;31.35;;;23.30;;
56712;SDS011;42589;45.536;9.032;2023-12-29T05:29:54;30.10;;;23.80;;
56712;SDS011;42589;45.536;9.032;2023-12-29T05:32:55;29.02;;;22.92;;
56712;SDS011;42589;45.536;9.032;2023-12-29T05:35:56;28.58;;;23.33;;
56712;SDS011;42589;45.536;9.032;2023-12-29T05:38:56;30.45;;;23.60;;
56712;SDS011;42589;45.536;9.032;2023-12-29T05:41:57;30.15;;;22.83;;
56712;SDS011;42589;45.536;9.032;2023-12-29T05:44:57;28.02;;;23.40;;
56712;SDS011;42589;45.536;9.032;2023-12-29T05:47:58;27.67;;;23.50;;
56712;SDS011;42589;45.536;9.032;2023-12-29T05:50:59;29.38;;;23.08;;
56712;SDS011;42589;45.536;9.032;2023-12-29T05:54:01;26.15;;;21.90;;
56712;SDS011;42589;45.536;9.032;2023-12-29T05:57:02;29.23;;;22.13;;
56712;SDS011;42589;45.536;9.032;2023-12-29T06:00:03;27.90;;;21.65;;
56712;SDS011;42589;45.536;9.032;2023-12-29T06:03:04;33.33;;;23.52;;
56712;SDS011;42589;45.536;9.032;2023-12-29T06:06:05;28.85;;;23.20;;
56712;SDS011;42589;45.536;9.032;2023-12-29T06:09:06;30.35;;;22.98;;
56712;SDS011;42589;45.536;9.032;2023-12-29T06:12:06;29.75;;;22.30;;
56712;SDS011;42589;45.536;9.032;2023-12-29T06:18:37;30.33;;;23.45;;
56712;SDS011;42589;45.536;9.032;2023-12-29T06:21:41;29.05;;;22.73;;
56712;SDS011;42589;45.536;9.032;2023-12-29T06:24:41;26.83;;;22.30;;
56712;SDS011;42589;45.536;9.032;2023-12-29T06:27:45;31.38;;;23.15;;
56712;SDS011;42589;45.536;9.032;2023-12-29T06:30:45;26.70;;;21.57;;
56712;SDS011;42589;45.536;9.032;2023-12-29T06:33:46;28.20;;;22.55;;
56712;SDS011;42589;45.536;9.032;2023-12-29T06:36:47;28.40;;;22.42;;
56712;SDS011;42589;45.536;9.032;2023-12-29T06:39:47;28.67;;;22.55;;
56712;SDS011;42589;45.536;9.032;2023-12-29T06:42:48;27.85;;;23.02;;
56712;SDS011;42589;45.536;9.032;2023-12-29T06:45:49;30.83;;;23.40;;
56712;SDS011;42589;45.536;9.032;2023-12-29T06:48:49;28.02;;;22.30;;
56712;SDS011;42589;45.536;9.032;2023-12-29T06:51:51;30.85;;;22.17;;
56712;SDS011;42589;45.536;9.032;2023-12-29T06:54:51;28.38;;;23.08;;
56712;SDS011;42589;45.536;9.032;2023-12-29T06:57:52;28.15;;;23.00;;
56712;SDS011;42589;45.536;9.032;2023-12-29T07:00:53;30.75;;;23.25;;
56712;SDS011;42589;45.536;9.032;2023-12-29T07:03:54;30.45;;;23.08;;
56712;SDS011;42589;45.536;9.032;2023-12-29T07:06:54;29.63;;;22.53;;
56712;SDS011;42589;45.536;9.032;2023-12-29T07:09:55;32.50;;;22.58;;
56712;SDS011;42589;45.536;9.032;2023-12-29T07:12:55;28.10;;;22.17;;
56712;SDS011;42589;45.536;9.032;2023-12-29T07:15:56;30.45;;;23.58;;
56712;SDS011;42589;45.536;9.032;2023-12-29T07:18:57;27.88;;;22.17;;
56712;SDS011;42589;45.536;9.032;2023-12-29T07:21:58;32.47;;;23.30;;
56712;SDS011;42589;45.536;9.032;2023-12-29T07:24:58;30.10;;;23.63;;
56712;SDS011;42589;45.536;9.032;2023-12-29T07:28:00;30.17;;;23.52;;
56712;SDS011;42589;45.536;9.032;2023-12-29T07:31:03;27.27;;;22.48;;
56712;SDS011;42589;45.536;9.032;2023-12-29T07:34:23;26.08;;;22.45;;
56712;SDS011;42589;45.536;9.032;2023-12-29T07:37:44;33.05;;;23.33;;
56712;SDS011;42589;45.536;9.032;2023-12-29T07:40:44;27.52;;;22.58;;
56712;SDS011;42589;45.536;9.032;2023-12-29T07:43:45;26.98;;;22.58;;
56712;SDS011;42589;45.536;9.032;2023-12-29T07:46:46;30.00;;;23.73;;
56712;SDS011;42589;45.536;9.032;2023-12-29T07:49:47;30.15;;;23.58;;
56712;SDS011;42589;45.536;9.032;2023-12-29T07:52:47;30.33;;;23.15;;
56712;SDS011;42589;45.536;9.032;2023-12-29T07:55:48;32.25;;;24.13;;
56712;SDS011;42589;45.536;9.032;2023-12-29T07:58:50;29.90;;;23.00;;
56712;SDS011;42589;45.536;9.032;2023-12-29T08:01:50;29.60;;;23.70;;
56712;SDS011;42589;45.536;9.032;2023-12-29T08:04:51;27.92;;;23.83;;
56712;SDS011;42589;45.536;9.032;2023-12-29T08:07:52;32.17;;;24.52;;
56712;SDS011;42589;45.536;9.032;2023-12-29T08:10:53;30.33;;;23.48;;
56712;SDS011;42589;45.536;9.032;2023-12-29T08:13:53;29.10;;;23.77;;
56712;SDS011;42589;45.536;9.032;2023-12-29T08:16:54;30.42;;;23.02;;
56712;SDS011;42589;45.536;9.032;2023-12-29T08:19:57;29.45;;;23.45;;
56712;SDS011;42589;45.536;9.032;2023-12-29T08:23:01;28.45;;;22.83;;
56712;SDS011;42589;45.536;9.032;2023-12-29T08:26:02;27.55;;;21.92;;
56712;SDS011;42589;45.536;9.032;2023-12-29T08:29:03;33.55;;;23.17;;
56712;SDS011;42589;45.536;9.032;2023-12-29T08:32:04;30.73;;;23.52;;
56712;SDS011;42589;45.536;9.032;2023-12-29T08:35:05;28.63;;;22.40;;
56712;SDS011;42589;45.536;9.032;2023-12-29T08:38:06;30.83;;;23.15;;
56712;SDS011;42589;45.536;9.032;2023-12-29T08:41:07;30.80;;;23.52;;
56712;SDS011;42589;45.536;9.032;2023-12-29T08:44:08;31.67;;;24.80;;
56712;SDS011;42589;45.536;9.032;2023-12-29T08:47:08;27.67;;;22.50;;
56712;SDS011;42589;45.536;9.032;2023-12-29T08:50:08;29.33;;;24.58;;
56712;SDS011;42589;45.536;9.032;2023-12-29T08:53:09;28.70;;;23.05;;
56712;SDS011;42589;45.536;9.032;2023-12-29T08:56:10;28.85;;;23.23;;
56712;SDS011;42589;45.536;9.032;2023-12-29T08:59:10;31.30;;;24.55;;
56712;SDS011;42589;45.536;9.032;2023-12-29T09:02:11;26.27;;;22.85;;
56712;SDS011;42589;45.536;9.032;2023-12-29T09:05:11;27.60;;;22.55;;
56712;SDS011;42589;45.536;9.032;2023-12-29T09:08:12;29.08;;;23.70;;
56712;SDS011;42589;45.536;9.032;2023-12-29T09:11:13;30.15;;;22.83;;
56712;SDS011;42589;45.536;9.032;2023-12-29T09:14:14;32.60;;;23.27;;
56712;SDS011;42589;45.536;9.032;2023-12-29T09:17:14;29.13;;;22.98;;
56712;SDS011;42589;45.536;9.032;2023-12-29T09:20:16;26.77;;;22.23;;
56712;SDS011;42589;45.536;9.032;2023-12-29T09:23:17;30.33;;;22.45;;
56712;SDS011;42589;45.536;9.032;2023-12-29T09:26:17;28.80;;;24.17;;
56712;SDS011;42589;45.536;9.032;2023-12-29T09:29:18;28.80;;;23.08;;
56712;SDS011;42589;45.536;9.032;2023-12-29T09:32:19;28.58;;;23.33;;
56712;SDS011;42589;45.536;9.032;2023-12-29T09:35:19;28.30;;;22.30;;
56712;SDS011;42589;45.536;9.032;2023-12-29T09:38:20;26.92;;;22.75;;
56712;SDS011;42589;45.536;9.032;2023-12-29T09:41:22;29.85;;;23.67;;
56712;SDS011;42589;45.536;9.032;2023-12-29T09:44:24;29.23;;;22.40;;
56712;SDS011;42589;45.536;9.032;2023-12-29T09:47:25;28.42;;;23.73;;
56712;SDS011;42589;45.536;9.032;2023-12-29T09:50:25;28.75;;;23.00;;
56712;SDS011;42589;45.536;9.032;2023-12-29T09:53:26;30.92;;;23.27;;
56712;SDS011;42589;45.536;9.032;2023-12-29T09:56:27;29.33;;;22.85;;
56712;SDS011;42589;45.536;9.032;2023-12-29T09:59:27;27.92;;;22.23;;
56712;SDS011;42589;45.536;9.032;2023-12-29T10:02:28;29.60;;;22.00;;
56712;SDS011;42589;45.536;9.032;2023-12-29T10:05:30;27.80;;;21.38;;
56712;SDS011;42589;45.536;9.032;2023-12-29T10:08:31;29.50;;;21.95;;
56712;SDS011;42589;45.536;9.032;2023-12-29T10:11:34;31.13;;;22.70;;
56712;SDS011;42589;45.536;9.032;2023-12-29T10:14:37;28.42;;;22.98;;
56712;SDS011;42589;45.536;9.032;2023-12-29T10:27:08;28.83;;;22.08;;
56712;SDS011;42589;45.536;9.032;2023-12-29T10:30:09;28.77;;;22.35;;
56712;SDS011;42589;45.536;9.032;2023-12-29T10:33:10;25.35;;;22.02;;
56712;SDS011;42589;45.536;9.032;2023-12-29T10:36:11;31.55;;;23.23;;
56712;SDS011;42589;45.536;9.032;2023-12-29T10:39:11;25.65;;;21.75;;
56712;SDS011;42589;45.536;9.032;2023-12-29T10:42:12;30.27;;;22.15;;
56712;SDS011;42589;45.536;9.032;2023-12-29T10:45:12;29.27;;;22.90;;
56712;SDS011;42589;45.536;9.032;2023-12-29T10:48:21;32.00;;;22.77;;
56712;SDS011;42589;45.536;9.032;2023-12-29T10:51:26;28.27;;;21.88;;
56712;SDS011;42589;45.536;9.032;2023-12-29T10:54:28;28.50;;;22.45;;
56712;SDS011;42589;45.536;9.032;2023-12-29T10:57:28;29.45;;;21.75;;
56712;SDS011;42589;45.536;9.032;2023-12-29T11:00:30;30.88;;;22.33;;
56712;SDS011;42589;45.536;9.032;2023-12-29T11:03:31;29.42;;;21.85;;
56712;SDS011;42589;45.536;9.032;2023-12-29T11:06:40;29.45;;;21.98;;
56712;SDS011;42589;45.536;9.032;2023-12-29T11:09:44;31.17;;;23.80;;
56712;SDS011;42589;45.536;9.032;2023-12-29T11:12:46;26.08;;;22.35;;
56712;SDS011;42589;45.536;9.032;2023-12-29T11:15:47;31.98;;;23.15;;
56712;SDS011;42589;45.536;9.032;2023-12-29T11:18:49;34.35;;;22.40;;
56712;SDS011;42589;45.536;9.032;2023-12-29T11:21:56;30.13;;;23.25;;
56712;SDS011;42589;45.536;9.032;2023-12-29T11:24:57;31.25;;;22.55;;
56712;SDS011;42589;45.536;9.032;2023-12-29T11:28:00;27.05;;;21.60;;
56712;SDS011;42589;45.536;9.032;2023-12-29T11:31:00;30.02;;;22.33;;
56712;SDS011;42589;45.536;9.032;2023-12-29T11:34:03;26.33;;;22.30;;
56712;SDS011;42589;45.536;9.032;2023-12-29T11:37:11;32.22;;;22.40;;
56712;SDS011;42589;45.536;9.032;2023-12-29T11:40:22;26.70;;;22.40;;
56712;SDS011;42589;45.536;9.032;2023-12-29T11:43:25;29.38;;;22.40;;
56712;SDS011;42589;45.536;9.032;2023-12-29T11:46:39;29.13;;;22.90;;
56712;SDS011;42589;45.536;9.032;2023-12-29T11:49:58;28.70;;;22.70;;
56712;SDS011;42589;45.536;9.032;2023-12-29T11:53:00;31.77;;;23.02;;
56712;SDS011;42589;45.536;9.032;2023-12-29T11:56:00;32.92;;;24.02;;
56712;SDS011;42589;45.536;9.032;2023-12-29T11:59:20;31.73;;;22.50;;
56712;SDS011;42589;45.536;9.032;2023-12-29T12:02:27;27.05;;;22.02;;
56712;SDS011;42589;45.536;9.032;2023-12-29T12:05:44;30.73;;;23.33;;
56712;SDS011;42589;45.536;9.032;2023-12-29T12:08:45;30.55;;;23.00;;
56712;SDS011;42589;45.536;9.032;2023-12-29T12:11:46;32.40;;;23.35;;
56712;SDS011;42589;45.536;9.032;2023-12-29T12:17:52;31.45;;;25.08;;
56712;SDS011;42589;45.536;9.032;2023-12-29T12:20:59;32.17;;;24.90;;
56712;SDS011;42589;45.536;9.032;2023-12-29T12:24:01;33.38;;;25.05;;
56712;SDS011;42589;45.536;9.032;2023-12-29T12:27:07;30.55;;;25.23;;
56712;SDS011;42589;45.536;9.032;2023-12-29T12:30:09;36.58;;;26.90;;
56712;SDS011;42589;45.536;9.032;2023-12-29T12:33:10;33.75;;;25.65;;
56712;SDS011;42589;45.536;9.032;2023-12-29T12:36:15;34.58;;;27.08;;
56712;SDS011;42589;45.536;9.032;2023-12-29T12:39:15;32.28;;;25.90;;
56712;SDS011;42589;45.536;9.032;2023-12-29T12:42:16;33.25;;;26.15;;
56712;SDS011;42589;45.536;9.032;2023-12-29T12:45:20;33.25;;;27.40;;
56712;SDS011;42589;45.536;9.032;2023-12-29T12:51:35;34.38;;;27.05;;
56712;SDS011;42589;45.536;9.032;2023-12-29T12:54:36;35.53;;;28.23;;
56712;SDS011;42589;45.536;9.032;2023-12-29T12:57:36;38.03;;;28.55;;
56712;SDS011;42589;45.536;9.032;2023-12-29T13:00:37;32.00;;;27.25;;
56712;SDS011;42589;45.536;9.032;2023-12-29T13:03:38;30.90;;;26.38;;
56712;SDS011;42589;45.536;9.032;2023-12-29T13:06:43;32.53;;;27.52;;
56712;SDS011;42589;45.536;9.032;2023-12-29T13:09:44;37.30;;;27.73;;
56712;SDS011;42589;45.536;9.032;2023-12-29T13:12:52;33.80;;;26.83;;
56712;SDS011;42589;45.536;9.032;2023-12-29T13:15:53;35.72;;;27.38;;
56712;SDS011;42589;45.536;9.032;2023-12-29T13:18:54;32.78;;;26.70;;
56712;SDS011;42589;45.536;9.032;2023-12-29T13:21:55;33.15;;;26.85;;
56712;SDS011;42589;45.536;9.032;2023-12-29T13:24:55;36.38;;;26.05;;
56712;SDS011;42589;45.536;9.032;2023-12-29T13:27:56;31.05;;;26.27;;
56712;SDS011;42589;45.536;9.032;2023-12-29T13:30:58;37.63;;;27.35;;
56712;SDS011;42589;45.536;9.032;2023-12-29T13:34:01;34.20;;;28.08;;
56712;SDS011;42589;45.536;9.032;2023-12-29T13:37:09;36.22;;;28.13;;
56712;SDS011;42589;45.536;9.032;2023-12-29T13:43:33;32.33;;;26.42;;
56712;SDS011;42589;45.536;9.032;2023-12-29T13:46:36;32.95;;;26.85;;
56712;SDS011;42589;45.536;9.032;2023-12-29T13:49:37;33.15;;;26.42;;
56712;SDS011;42589;45.536;9.032;2023-12-29T13:52:39;32.08;;;25.00;;
56712;SDS011;42589;45.536;9.032;2023-12-29T13:55:41;33.75;;;25.02;;
56712;SDS011;42589;45.536;9.032;2023-12-29T13:58:41;32.83;;;26.05;;
56712;SDS011;42589;45.536;9.032;2023-12-29T14:01:42;32.20;;;25.90;;
56712;SDS011;42589;45.536;9.032;2023-12-29T14:04:43;30.60;;;25.42;;
56712;SDS011;42589;45.536;9.032;2023-12-29T14:07:45;33.80;;;26.20;;
56712;SDS011;42589;45.536;9.032;2023-12-29T14:10:50;32.10;;;26.92;;
56712;SDS011;42589;45.536;9.032;2023-12-29T14:13:53;31.08;;;25.15;;
56712;SDS011;42589;45.536;9.032;2023-12-29T14:16:53;34.10;;;25.23;;
56712;SDS011;42589;45.536;9.032;2023-12-29T14:19:54;29.25;;;25.35;;
56712;SDS011;42589;45.536;9.032;2023-12-29T14:23:03;33.30;;;25.20;;
56712;SDS011;42589;45.536;9.032;2023-12-29T14:26:04;33.40;;;25.77;;
56712;SDS011;42589;45.536;9.032;2023-12-29T14:29:08;35.78;;;26.10;;
56712;SDS011;42589;45.536;9.032;2023-12-29T14:32:09;34.40;;;27.40;;
56712;SDS011;42589;45.536;9.032;2023-12-29T14:35:10;37.70;;;27.98;;
56712;SDS011;42589;45.536;9.032;2023-12-29T14:38:10;36.17;;;27.00;;
56712;SDS011;42589;45.536;9.032;2023-12-29T14:41:16;36.70;;;28.67;;
56712;SDS011;42589;45.536;9.032;2023-12-29T14:44:20;37.65;;;28.00;;
56712;SDS011;42589;45.536;9.032;2023-12-29T14:47:21;38.80;;;28.83;;
56712;SDS011;42589;45.536;9.032;2023-12-29T14:50:22;40.72;;;28.75;;
56712;SDS011;42589;45.536;9.032;2023-12-29T14:53:23;31.20;;;25.45;;
56712;SDS011;42589;45.536;9.032;2023-12-29T14:56:25;34.85;;;25.02;;
56712;SDS011;42589;45.536;9.032;2023-12-29T14:59:30;35.15;;;25.55;;
56712;SDS011;42589;45.536;9.032;2023-12-29T15:02:30;29.75;;;24.02;;
56712;SDS011;42589;45.536;9.032;2023-12-29T15:05:31;31.60;;;24.90;;
56712;SDS011;42589;45.536;9.032;2023-12-29T15:08:32;29.85;;;24.33;;
56712;SDS011;42589;45.536;9.032;2023-12-29T15:11:37;29.13;;;24.00;;
56712;SDS011;42589;45.536;9.032;2023-12-29T15:14:38;35.03;;;23.55;;
56712;SDS011;42589;45.536;9.032;2023-12-29T15:17:39;31.30;;;24.40;;
56712;SDS011;42589;45.536;9.032;2023-12-29T15:20:40;30.35;;;24.40;;
56712;SDS011;42589;45.536;9.032;2023-12-29T15:23:41;32.50;;;23.80;;
56712;SDS011;42589;45.536;9.032;2023-12-29T15:26:42;26.25;;;22.75;;
56712;SDS011;42589;45.536;9.032;2023-12-29T15:29:43;26.65;;;21.92;;
56712;SDS011;42589;45.536;9.032;2023-12-29T15:32:44;26.98;;;21.67;;
56712;SDS011;42589;45.536;9.032;2023-12-29T15:35:44;29.25;;;22.45;;
56712;SDS011;42589;45.536;9.032;2023-12-29T15:38:45;26.45;;;20.88;;
56712;SDS011;42589;45.536;9.032;2023-12-29T15:41:46;29.85;;;21.48;;
56712;SDS011;42589;45.536;9.032;2023-12-29T15:44:48;27.65;;;20.55;;
56712;SDS011;42589;45.536;9.032;2023-12-29T15:47:48;29.35;;;21.95;;
56712;SDS011;42589;45.536;9.032;2023-12-29T15:50:49;34.40;;;21.45;;
56712;SDS011;42589;45.536;9.032;2023-12-29T15:53:51;26.45;;;21.92;;
56712;SDS011;42589;45.536;9.032;2023-12-29T15:59:55;29.88;;;22.63;;
56712;SDS011;42589;45.536;9.032;2023-12-29T16:02:57;37.60;;;24.02;;
56712;SDS011;42589;45.536;9.032;2023-12-29T16:05:58;32.25;;;23.73;;
56712;SDS011;42589;45.536;9.032;2023-12-29T16:09:01;36.90;;;23.88;;
56712;SDS011;42589;45.536;9.032;2023-12-29T16:12:01;34.30;;;25.77;;
56712;SDS011;42589;45.536;9.032;2023-12-29T16:15:02;33.45;;;23.75;;
56712;SDS011;42589;45.536;9.032;2023-12-29T16:18:03;32.50;;;24.17;;
56712;SDS011;42589;45.536;9.032;2023-12-29T16:21:04;32.13;;;23.65;;
56712;SDS011;42589;45.536;9.032;2023-12-29T16:24:08;31.02;;;23.33;;
56712;SDS011;42589;45.536;9.032;2023-12-29T16:27:12;30.80;;;24.35;;
56712;SDS011;42589;45.536;9.032;2023-12-29T16:30:13;28.58;;;23.05;;
56712;SDS011;42589;45.536;9.032;2023-12-29T16:33:14;29.40;;;22.98;;
56712;SDS011;42589;45.536;9.032;2023-12-29T16:36:15;33.10;;;23.80;;
56712;SDS011;42589;45.536;9.032;2023-12-29T16:39:15;28.98;;;23.75;;
56712;SDS011;42589;45.536;9.032;2023-12-29T16:42:16;34.47;;;25.20;;
56712;SDS011;42589;45.536;9.032;2023-12-29T16:45:17;33.50;;;25.88;;
56712;SDS011;42589;45.536;9.032;2023-12-29T16:48:18;35.63;;;25.58;;
56712;SDS011;42589;45.536;9.032;2023-12-29T16:51:19;33.40;;;24.65;;
56712;SDS011;42589;45.536;9.032;2023-12-29T16:54:20;30.60;;;23.92;;
56712;SDS011;42589;45.536;9.032;2023-12-29T16:57:20;31.38;;;24.10;;
56712;SDS011;42589;45.536;9.032;2023-12-29T17:00:21;32.80;;;24.17;;
56712;SDS011;42589;45.536;9.032;2023-12-29T17:03:24;31.33;;;23.95;;
56712;SDS011;42589;45.536;9.032;2023-12-29T17:06:24;26.83;;;22.75;;
56712;SDS011;42589;45.536;9.032;2023-12-29T17:09:28;31.60;;;24.13;;
56712;SDS011;42589;45.536;9.032;2023-12-29T17:12:31;32.00;;;25.10;;
56712;SDS011;42589;45.536;9.032;2023-12-29T17:15:32;32.45;;;25.73;;
56712;SDS011;42589;45.536;9.032;2023-12-29T17:18:34;35.83;;;27.85;;
56712;SDS011;42589;45.536;9.032;2023-12-29T17:21:34;39.50;;;27.63;;
56712;SDS011;42589;45.536;9.032;2023-12-29T17:24:34;35.10;;;27.70;;
56712;SDS011;42589;45.536;9.032;2023-12-29T17:27:38;36.43;;;28.23;;
56712;SDS011;42589;45.536;9.032;2023-12-29T17:30:38;37.03;;;29.20;;
56712;SDS011;42589;45.536;9.032;2023-12-29T17:33:39;40.35;;;29.90;;
56712;SDS011;42589;45.536;9.032;2023-12-29T17:36:42;41.10;;;30.92;;
56712;SDS011;42589;45.536;9.032;2023-12-29T17:39:44;42.97;;;31.10;;
56712;SDS011;42589;45.536;9.032;2023-12-29T17:42:45;44.72;;;31.48;;
56712;SDS011;42589;45.536;9.032;2023-12-29T17:45:46;44.33;;;34.42;;
56712;SDS011;42589;45.536;9.032;2023-12-29T17:48:47;43.25;;;33.28;;
56712;SDS011;42589;45.536;9.032;2023-12-29T17:51:47;43.08;;;32.28;;
56712;SDS011;42589;45.536;9.032;2023-12-29T17:54:49;38.97;;;32.25;;
56712;SDS011;42589;45.536;9.032;2023-12-29T17:57:49;47.53;;;34.67;;
56712;SDS011;42589;45.536;9.032;2023-12-29T18:00:50;43.47;;;33.30;;
56712;SDS011;42589;45.536;9.032;2023-12-29T18:03:50;45.17;;;34.97;;
56712;SDS011;42589;45.536;9.032;2023-12-29T18:06:51;45.08;;;35.20;;
56712;SDS011;42589;45.536;9.032;2023-12-29T18:09:51;48.00;;;36.03;;